sensor_id;sensor_type;location;lat;lon;timestamp;P1;durP1;ratioP1;P2;durP2;ratioP2
23119;SDS011;11729;50.836;4.330;2023-03-21T00:01:05;17.58;;;9.82;;
23119;SDS011;11729;50.836;4.330;2023-03-21T00:03:31;19.70;;;10.38;;
23119;SDS011;11729;50.836;4.330;2023-03-21T00:05:58;20.20;;;10.80;;
23119;SDS011;11729;50.836;4.330;2023-03-21T00:08:29;18.02;;;10.55;;
23119;SDS011;11729;50.836;4.330;2023-03-21T00:10:58;15.50;;;9.82;;
23119;SDS011;11729;50.836;4.330;2023-03-21T00:13:25;23.23;;;10.70;;
23119;SDS011;11729;50.836;4.330;2023-03-21T00:15:53;18.35;;;10.95;;
23119;SDS011;11729;50.836;4.330;2023-03-21T00:18:22;14.70;;;10.25;;
23119;SDS011;11729;50.836;4.330;2023-03-21T00:20:59;16.65;;;10.85;;
23119;SDS011;11729;50.836;4.330;2023-03-21T00:23:27;18.77;;;10.97;;
23119;SDS011;11729;50.836;4.330;2023-03-21T00:25:55;23.35;;;11.07;;
23119;SDS011;11729;50.836;4.330;2023-03-21T00:28:21;17.15;;;10.52;;
23119;SDS011;11729;50.836;4.330;2023-03-21T00:30:48;17.95;;;11.25;;
23119;SDS011;11729;50.836;4.330;2023-03-21T00:33:14;18.95;;;10.95;;
23119;SDS011;11729;50.836;4.330;2023-03-21T00:35:44;16.95;;;10.80;;
23119;SDS011;11729;50.836;4.330;2023-03-21T00:38:12;18.23;;;11.03;;
23119;SDS011;11729;50.836;4.330;2023-03-21T00:40:38;16.33;;;10.73;;
23119;SDS011;11729;50.836;4.330;2023-03-21T00:43:04;16.85;;;9.85;;
23119;SDS011;11729;50.836;4.330;2023-03-21T00:45:30;17.20;;;9.82;;
23119;SDS011;11729;50.836;4.330;2023-03-21T00:47:56;11.38;;;9.27;;
23119;SDS011;11729;50.836;4.330;2023-03-21T00:50:22;13.93;;;9.95;;
23119;SDS011;11729;50.836;4.330;2023-03-21T00:52:48;13.07;;;9.88;;
23119;SDS011;11729;50.836;4.330;2023-03-21T00:55:15;13.27;;;8.93;;
23119;SDS011;11729;50.836;4.330;2023-03-21T00:57:43;15.98;;;9.82;;
23119;SDS011;11729;50.836;4.330;2023-03-21T01:00:10;13.38;;;8.95;;
23119;SDS011;11729;50.836;4.330;2023-03-21T01:02:37;14.65;;;9.55;;
23119;SDS011;11729;50.836;4.330;2023-03-21T01:05:20;12.65;;;8.98;;
23119;SDS011;11729;50.836;4.330;2023-03-21T01:08:08;16.95;;;9.30;;
23119;SDS011;11729;50.836;4.330;2023-03-21T01:10:41;18.10;;;9.73;;
23119;SDS011;11729;50.836;4.330;2023-03-21T01:13:09;16.58;;;8.88;;
23119;SDS011;11729;50.836;4.330;2023-03-21T01:15:37;18.70;;;9.55;;
23119;SDS011;11729;50.836;4.330;2023-03-21T01:18:09;11.60;;;9.02;;
23119;SDS011;11729;50.836;4.330;2023-03-21T01:20:35;16.90;;;9.32;;
23119;SDS011;11729;50.836;4.330;2023-03-21T01:23:00;14.85;;;8.88;;
23119;SDS011;11729;50.836;4.330;2023-03-21T01:25:26;13.05;;;8.70;;
23119;SDS011;11729;50.836;4.330;2023-03-21T01:27:52;18.65;;;9.55;;
23119;SDS011;11729;50.836;4.330;2023-03-21T01:30:19;12.63;;;8.70;;
23119;SDS011;11729;50.836;4.330;2023-03-21T01:32:45;12.60;;;9.60;;
23119;SDS011;11729;50.836;4.330;2023-03-21T01:35:11;17.60;;;9.35;;
23119;SDS011;11729;50.836;4.330;2023-03-21T01:37:36;14.90;;;9.82;;
23119;SDS011;11729;50.836;4.330;2023-03-21T01:40:02;19.95;;;9.32;;
23119;SDS011;11729;50.836;4.330;2023-03-21T01:42:29;19.60;;;9.82;;
23119;SDS011;11729;50.836;4.330;2023-03-21T01:45:03;14.15;;;9.52;;
23119;SDS011;11729;50.836;4.330;2023-03-21T01:47:51;15.73;;;9.43;;
23119;SDS011;11729;50.836;4.330;2023-03-21T01:50:17;14.30;;;9.38;;
23119;SDS011;11729;50.836;4.330;2023-03-21T01:52:46;17.05;;;9.85;;
23119;SDS011;11729;50.836;4.330;2023-03-21T01:55:14;18.00;;;10.00;;
23119;SDS011;11729;50.836;4.330;2023-03-21T01:57:46;20.50;;;10.30;;
23119;SDS011;11729;50.836;4.330;2023-03-21T02:00:17;17.60;;;10.02;;
23119;SDS011;11729;50.836;4.330;2023-03-21T02:02:45;21.27;;;9.90;;
23119;SDS011;11729;50.836;4.330;2023-03-21T02:05:24;20.23;;;9.80;;
23119;SDS011;11729;50.836;4.330;2023-03-21T02:08:02;15.13;;;9.43;;
23119;SDS011;11729;50.836;4.330;2023-03-21T02:10:28;18.85;;;9.82;;
23119;SDS011;11729;50.836;4.330;2023-03-21T02:15:34;14.70;;;9.73;;
23119;SDS011;11729;50.836;4.330;2023-03-21T02:23:41;16.83;;;9.85;;
23119;SDS011;11729;50.836;4.330;2023-03-21T02:32:32;18.02;;;9.38;;
23119;SDS011;11729;50.836;4.330;2023-03-21T02:37:34;16.60;;;9.43;;
23119;SDS011;11729;50.836;4.330;2023-03-21T02:40:08;16.35;;;9.20;;
23119;SDS011;11729;50.836;4.330;2023-03-21T02:42:44;21.95;;;9.55;;
23119;SDS011;11729;50.836;4.330;2023-03-21T02:45:15;17.77;;;9.75;;
23119;SDS011;11729;50.836;4.330;2023-03-21T02:47:45;20.50;;;9.48;;
23119;SDS011;11729;50.836;4.330;2023-03-21T02:50:34;19.13;;;8.75;;
23119;SDS011;11729;50.836;4.330;2023-03-21T02:53:07;14.00;;;8.75;;
23119;SDS011;11729;50.836;4.330;2023-03-21T02:58:02;21.30;;;8.77;;
23119;SDS011;11729;50.836;4.330;2023-03-21T03:00:30;23.05;;;9.60;;
23119;SDS011;11729;50.836;4.330;2023-03-21T03:02:57;15.93;;;8.53;;
23119;SDS011;11729;50.836;4.330;2023-03-21T03:05:24;17.27;;;8.00;;
23119;SDS011;11729;50.836;4.330;2023-03-21T03:10:43;19.83;;;8.80;;
23119;SDS011;11729;50.836;4.330;2023-03-21T03:13:33;19.63;;;9.10;;
23119;SDS011;11729;50.836;4.330;2023-03-21T03:16:52;22.88;;;8.88;;
23119;SDS011;11729;50.836;4.330;2023-03-21T03:19:24;17.25;;;8.38;;
23119;SDS011;11729;50.836;4.330;2023-03-21T03:21:58;18.63;;;8.77;;
23119;SDS011;11729;50.836;4.330;2023-03-21T03:27:23;18.77;;;8.75;;
23119;SDS011;11729;50.836;4.330;2023-03-21T03:29:51;16.52;;;8.73;;
23119;SDS011;11729;50.836;4.330;2023-03-21T03:32:25;15.25;;;8.60;;
23119;SDS011;11729;50.836;4.330;2023-03-21T03:34:59;20.85;;;8.48;;
23119;SDS011;11729;50.836;4.330;2023-03-21T03:37:27;17.90;;;8.63;;
23119;SDS011;11729;50.836;4.330;2023-03-21T03:39:57;15.80;;;8.27;;
23119;SDS011;11729;50.836;4.330;2023-03-21T03:42:34;18.73;;;8.57;;
23119;SDS011;11729;50.836;4.330;2023-03-21T03:45:06;15.55;;;7.88;;
23119;SDS011;11729;50.836;4.330;2023-03-21T03:47:37;12.60;;;8.07;;
23119;SDS011;11729;50.836;4.330;2023-03-21T03:53:22;11.13;;;7.45;;
23119;SDS011;11729;50.836;4.330;2023-03-21T03:55:28;15.48;;;8.48;;
23119;SDS011;11729;50.836;4.330;2023-03-21T03:57:58;16.48;;;8.48;;
23119;SDS011;11729;50.836;4.330;2023-03-21T04:00:24;15.10;;;8.38;;
23119;SDS011;11729;50.836;4.330;2023-03-21T04:02:52;13.93;;;9.27;;
23119;SDS011;11729;50.836;4.330;2023-03-21T04:05:19;18.60;;;9.27;;
23119;SDS011;11729;50.836;4.330;2023-03-21T04:07:45;17.10;;;8.27;;
23119;SDS011;11729;50.836;4.330;2023-03-21T04:10:14;19.42;;;8.95;;
23119;SDS011;11729;50.836;4.330;2023-03-21T04:12:41;17.50;;;9.43;;
23119;SDS011;11729;50.836;4.330;2023-03-21T04:15:07;19.58;;;10.13;;
23119;SDS011;11729;50.836;4.330;2023-03-21T04:17:33;18.70;;;9.60;;
23119;SDS011;11729;50.836;4.330;2023-03-21T04:19:58;14.88;;;9.88;;
23119;SDS011;11729;50.836;4.330;2023-03-21T04:22:24;19.77;;;9.65;;
23119;SDS011;11729;50.836;4.330;2023-03-21T04:24:51;18.80;;;10.38;;
23119;SDS011;11729;50.836;4.330;2023-03-21T04:27:17;19.77;;;10.32;;
23119;SDS011;11729;50.836;4.330;2023-03-21T04:29:42;21.20;;;10.73;;
23119;SDS011;11729;50.836;4.330;2023-03-21T04:32:08;21.45;;;10.02;;
23119;SDS011;11729;50.836;4.330;2023-03-21T04:34:40;21.65;;;10.93;;
23119;SDS011;11729;50.836;4.330;2023-03-21T04:37:07;24.73;;;10.83;;
23119;SDS011;11729;50.836;4.330;2023-03-21T04:42:02;19.80;;;10.60;;
23119;SDS011;11729;50.836;4.330;2023-03-21T04:44:28;22.30;;;10.68;;
23119;SDS011;11729;50.836;4.330;2023-03-21T04:46:54;18.80;;;10.43;;
23119;SDS011;11729;50.836;4.330;2023-03-21T04:49:20;21.15;;;10.32;;
23119;SDS011;11729;50.836;4.330;2023-03-21T04:51:46;22.73;;;10.60;;
23119;SDS011;11729;50.836;4.330;2023-03-21T04:54:12;26.02;;;11.40;;
23119;SDS011;11729;50.836;4.330;2023-03-21T04:56:38;18.20;;;11.00;;
23119;SDS011;11729;50.836;4.330;2023-03-21T04:59:08;21.48;;;10.65;;
23119;SDS011;11729;50.836;4.330;2023-03-21T05:01:35;24.10;;;11.80;;
23119;SDS011;11729;50.836;4.330;2023-03-21T05:04:02;19.17;;;11.45;;
23119;SDS011;11729;50.836;4.330;2023-03-21T05:06:29;18.42;;;11.13;;
23119;SDS011;11729;50.836;4.330;2023-03-21T05:08:57;20.95;;;11.00;;
23119;SDS011;11729;50.836;4.330;2023-03-21T05:11:24;18.80;;;10.80;;
23119;SDS011;11729;50.836;4.330;2023-03-21T05:13:51;22.48;;;12.00;;
23119;SDS011;11729;50.836;4.330;2023-03-21T05:16:17;20.80;;;11.95;;
23119;SDS011;11729;50.836;4.330;2023-03-21T05:18:42;21.63;;;10.68;;
23119;SDS011;11729;50.836;4.330;2023-03-21T05:21:08;20.17;;;11.32;;
23119;SDS011;11729;50.836;4.330;2023-03-21T05:23:35;24.88;;;12.35;;
23119;SDS011;11729;50.836;4.330;2023-03-21T05:26:06;23.52;;;11.05;;
23119;SDS011;11729;50.836;4.330;2023-03-21T05:28:33;23.35;;;11.38;;
23119;SDS011;11729;50.836;4.330;2023-03-21T05:31:01;20.10;;;11.80;;
23119;SDS011;11729;50.836;4.330;2023-03-21T05:33:27;21.73;;;11.90;;
23119;SDS011;11729;50.836;4.330;2023-03-21T05:35:54;21.65;;;11.40;;
23119;SDS011;11729;50.836;4.330;2023-03-21T05:38:19;18.90;;;10.15;;
23119;SDS011;11729;50.836;4.330;2023-03-21T05:40:48;21.92;;;10.77;;
23119;SDS011;11729;50.836;4.330;2023-03-21T05:43:14;19.77;;;10.55;;
23119;SDS011;11729;50.836;4.330;2023-03-21T05:45:40;20.17;;;10.07;;
23119;SDS011;11729;50.836;4.330;2023-03-21T05:48:06;30.95;;;14.35;;
23119;SDS011;11729;50.836;4.330;2023-03-21T05:50:32;28.58;;;14.93;;
23119;SDS011;11729;50.836;4.330;2023-03-21T05:52:57;22.48;;;11.88;;
23119;SDS011;11729;50.836;4.330;2023-03-21T05:55:23;18.30;;;11.02;;
23119;SDS011;11729;50.836;4.330;2023-03-21T05:57:49;19.92;;;11.55;;
23119;SDS011;11729;50.836;4.330;2023-03-21T06:00:15;20.05;;;11.70;;
23119;SDS011;11729;50.836;4.330;2023-03-21T06:02:41;24.55;;;11.98;;
23119;SDS011;11729;50.836;4.330;2023-03-21T06:05:07;24.92;;;11.23;;
23119;SDS011;11729;50.836;4.330;2023-03-21T06:07:34;23.98;;;11.43;;
23119;SDS011;11729;50.836;4.330;2023-03-21T06:10:01;21.90;;;11.65;;
23119;SDS011;11729;50.836;4.330;2023-03-21T06:12:28;17.45;;;11.52;;
23119;SDS011;11729;50.836;4.330;2023-03-21T06:14:53;4.95;;;4.75;;
23119;SDS011;11729;50.836;4.330;2023-03-21T06:17:19;4.47;;;4.28;;
23119;SDS011;11729;50.836;4.330;2023-03-21T06:19:45;4.20;;;4.00;;
23119;SDS011;11729;50.836;4.330;2023-03-21T06:22:10;4.30;;;4.10;;
23119;SDS011;11729;50.836;4.330;2023-03-21T06:24:36;4.30;;;4.10;;
23119;SDS011;11729;50.836;4.330;2023-03-21T06:27:02;4.47;;;4.28;;
23119;SDS011;11729;50.836;4.330;2023-03-21T06:29:28;4.15;;;3.95;;
23119;SDS011;11729;50.836;4.330;2023-03-21T06:31:53;4.25;;;4.05;;
23119;SDS011;11729;50.836;4.330;2023-03-21T06:34:19;4.43;;;4.22;;
23119;SDS011;11729;50.836;4.330;2023-03-21T06:36:45;4.40;;;4.20;;
23119;SDS011;11729;50.836;4.330;2023-03-21T06:39:11;4.32;;;4.13;;
23119;SDS011;11729;50.836;4.330;2023-03-21T06:41:37;4.43;;;4.22;;
23119;SDS011;11729;50.836;4.330;2023-03-21T06:44:03;4.50;;;4.30;;
23119;SDS011;11729;50.836;4.330;2023-03-21T06:46:28;4.40;;;4.20;;
23119;SDS011;11729;50.836;4.330;2023-03-21T06:48:54;4.28;;;4.07;;
23119;SDS011;11729;50.836;4.330;2023-03-21T06:51:20;4.30;;;4.10;;
23119;SDS011;11729;50.836;4.330;2023-03-21T06:53:46;7.22;;;6.63;;
23119;SDS011;11729;50.836;4.330;2023-03-21T06:56:12;4.63;;;4.43;;
23119;SDS011;11729;50.836;4.330;2023-03-21T06:58:38;4.28;;;4.07;;
23119;SDS011;11729;50.836;4.330;2023-03-21T07:01:06;4.20;;;4.00;;
23119;SDS011;11729;50.836;4.330;2023-03-21T07:03:32;4.97;;;4.75;;
23119;SDS011;11729;50.836;4.330;2023-03-21T07:05:58;4.20;;;4.00;;
23119;SDS011;11729;50.836;4.330;2023-03-21T07:08:27;5.30;;;5.00;;
23119;SDS011;11729;50.836;4.330;2023-03-21T07:10:54;4.30;;;4.10;;
23119;SDS011;11729;50.836;4.330;2023-03-21T07:13:21;4.50;;;4.30;;
23119;SDS011;11729;50.836;4.330;2023-03-21T07:15:47;4.30;;;4.10;;
23119;SDS011;11729;50.836;4.330;2023-03-21T07:18:12;4.97;;;4.68;;
23119;SDS011;11729;50.836;4.330;2023-03-21T07:20:39;4.10;;;3.90;;
23119;SDS011;11729;50.836;4.330;2023-03-21T07:23:05;4.40;;;4.20;;
23119;SDS011;11729;50.836;4.330;2023-03-21T07:25:31;4.30;;;4.10;;
23119;SDS011;11729;50.836;4.330;2023-03-21T07:27:57;4.20;;;4.00;;
23119;SDS011;11729;50.836;4.330;2023-03-21T07:30:22;5.30;;;4.97;;
23119;SDS011;11729;50.836;4.330;2023-03-21T07:32:48;4.50;;;4.30;;
23119;SDS011;11729;50.836;4.330;2023-03-21T07:35:15;4.10;;;3.90;;
23119;SDS011;11729;50.836;4.330;2023-03-21T07:37:42;4.20;;;4.00;;
23119;SDS011;11729;50.836;4.330;2023-03-21T07:40:09;4.00;;;3.80;;
23119;SDS011;11729;50.836;4.330;2023-03-21T07:42:36;4.25;;;4.05;;
23119;SDS011;11729;50.836;4.330;2023-03-21T07:45:02;4.05;;;3.85;;
23119;SDS011;11729;50.836;4.330;2023-03-21T07:47:29;3.90;;;3.70;;
23119;SDS011;11729;50.836;4.330;2023-03-21T07:49:55;4.10;;;3.90;;
23119;SDS011;11729;50.836;4.330;2023-03-21T07:52:21;4.00;;;3.80;;
23119;SDS011;11729;50.836;4.330;2023-03-21T07:54:47;4.10;;;3.90;;
23119;SDS011;11729;50.836;4.330;2023-03-21T07:57:13;4.63;;;4.43;;
23119;SDS011;11729;50.836;4.330;2023-03-21T07:59:40;4.18;;;3.97;;
23119;SDS011;11729;50.836;4.330;2023-03-21T08:02:06;4.10;;;3.90;;
23119;SDS011;11729;50.836;4.330;2023-03-21T08:04:32;5.13;;;4.90;;
23119;SDS011;11729;50.836;4.330;2023-03-21T08:06:59;4.50;;;4.30;;
23119;SDS011;11729;50.836;4.330;2023-03-21T08:09:25;4.55;;;4.35;;
23119;SDS011;11729;50.836;4.330;2023-03-21T08:11:51;4.30;;;4.10;;
23119;SDS011;11729;50.836;4.330;2023-03-21T08:14:16;4.10;;;3.90;;
23119;SDS011;11729;50.836;4.330;2023-03-21T08:16:42;4.03;;;3.83;;
23119;SDS011;11729;50.836;4.330;2023-03-21T08:19:08;4.10;;;3.90;;
23119;SDS011;11729;50.836;4.330;2023-03-21T08:21:33;4.10;;;3.90;;
23119;SDS011;11729;50.836;4.330;2023-03-21T08:24:00;4.20;;;4.00;;
23119;SDS011;11729;50.836;4.330;2023-03-21T08:26:26;4.40;;;4.20;;
23119;SDS011;11729;50.836;4.330;2023-03-21T08:28:52;4.55;;;4.35;;
23119;SDS011;11729;50.836;4.330;2023-03-21T08:31:18;4.00;;;3.80;;
23119;SDS011;11729;50.836;4.330;2023-03-21T08:33:45;4.20;;;4.00;;
23119;SDS011;11729;50.836;4.330;2023-03-21T08:36:11;4.30;;;4.10;;
23119;SDS011;11729;50.836;4.330;2023-03-21T08:38:37;4.00;;;3.80;;
23119;SDS011;11729;50.836;4.330;2023-03-21T08:41:03;6.07;;;4.43;;
23119;SDS011;11729;50.836;4.330;2023-03-21T08:43:29;3.97;;;3.78;;
23119;SDS011;11729;50.836;4.330;2023-03-21T08:45:55;4.65;;;4.40;;
23119;SDS011;11729;50.836;4.330;2023-03-21T08:48:21;3.97;;;3.78;;
23119;SDS011;11729;50.836;4.330;2023-03-21T08:50:46;6.80;;;6.28;;
23119;SDS011;11729;50.836;4.330;2023-03-21T08:53:12;4.00;;;3.80;;
23119;SDS011;11729;50.836;4.330;2023-03-21T08:55:38;4.60;;;4.30;;
23119;SDS011;11729;50.836;4.330;2023-03-21T08:58:03;4.10;;;3.90;;
23119;SDS011;11729;50.836;4.330;2023-03-21T09:00:29;4.30;;;4.10;;
23119;SDS011;11729;50.836;4.330;2023-03-21T09:02:55;4.28;;;4.07;;
23119;SDS011;11729;50.836;4.330;2023-03-21T09:05:22;4.10;;;3.90;;
23119;SDS011;11729;50.836;4.330;2023-03-21T09:07:50;4.32;;;4.13;;
23119;SDS011;11729;50.836;4.330;2023-03-21T09:10:17;4.10;;;3.90;;
23119;SDS011;11729;50.836;4.330;2023-03-21T09:12:45;4.53;;;4.32;;
23119;SDS011;11729;50.836;4.330;2023-03-21T09:15:11;4.25;;;4.05;;
23119;SDS011;11729;50.836;4.330;2023-03-21T09:17:39;6.53;;;5.85;;
23119;SDS011;11729;50.836;4.330;2023-03-21T09:20:11;4.10;;;3.90;;
23119;SDS011;11729;50.836;4.330;2023-03-21T09:22:43;4.05;;;3.85;;
23119;SDS011;11729;50.836;4.330;2023-03-21T09:25:10;4.20;;;4.00;;
23119;SDS011;11729;50.836;4.330;2023-03-21T09:27:37;4.10;;;3.90;;
23119;SDS011;11729;50.836;4.330;2023-03-21T09:30:03;4.03;;;3.83;;
23119;SDS011;11729;50.836;4.330;2023-03-21T09:32:31;5.90;;;5.45;;
23119;SDS011;11729;50.836;4.330;2023-03-21T09:34:58;4.20;;;4.00;;
23119;SDS011;11729;50.836;4.330;2023-03-21T09:37:24;4.20;;;4.00;;
23119;SDS011;11729;50.836;4.330;2023-03-21T09:39:49;4.43;;;4.22;;
23119;SDS011;11729;50.836;4.330;2023-03-21T09:47:53;4.40;;;4.20;;
23119;SDS011;11729;50.836;4.330;2023-03-21T09:50:30;4.18;;;3.97;;
23119;SDS011;11729;50.836;4.330;2023-03-21T09:53:07;4.30;;;4.10;;
23119;SDS011;11729;50.836;4.330;2023-03-21T09:55:39;4.30;;;4.10;;
23119;SDS011;11729;50.836;4.330;2023-03-21T10:01:04;4.22;;;4.03;;
23119;SDS011;11729;50.836;4.330;2023-03-21T10:03:40;4.57;;;4.38;;
23119;SDS011;11729;50.836;4.330;2023-03-21T10:06:11;4.22;;;4.03;;
23119;SDS011;11729;50.836;4.330;2023-03-21T10:08:39;4.20;;;4.00;;
23119;SDS011;11729;50.836;4.330;2023-03-21T10:13:40;4.35;;;4.15;;
23119;SDS011;11729;50.836;4.330;2023-03-21T10:16:28;4.53;;;4.32;;
23119;SDS011;11729;50.836;4.330;2023-03-21T10:19:16;4.85;;;4.65;;
23119;SDS011;11729;50.836;4.330;2023-03-21T10:21:47;4.43;;;4.22;;
23119;SDS011;11729;50.836;4.330;2023-03-21T10:24:15;4.38;;;4.18;;
23119;SDS011;11729;50.836;4.330;2023-03-21T10:26:46;4.40;;;4.20;;
23119;SDS011;11729;50.836;4.330;2023-03-21T10:29:14;4.38;;;4.18;;
23119;SDS011;11729;50.836;4.330;2023-03-21T10:31:41;4.78;;;4.57;;
23119;SDS011;11729;50.836;4.330;2023-03-21T10:34:17;12.50;;;8.40;;
23119;SDS011;11729;50.836;4.330;2023-03-21T10:36:47;9.98;;;7.43;;
23119;SDS011;11729;50.836;4.330;2023-03-21T10:39:18;11.52;;;7.60;;
23119;SDS011;11729;50.836;4.330;2023-03-21T10:41:51;12.75;;;7.38;;
23119;SDS011;11729;50.836;4.330;2023-03-21T10:44:18;11.80;;;7.45;;
23119;SDS011;11729;50.836;4.330;2023-03-21T10:46:54;12.75;;;7.45;;
23119;SDS011;11729;50.836;4.330;2023-03-21T10:49:22;13.65;;;7.75;;
23119;SDS011;11729;50.836;4.330;2023-03-21T10:51:51;8.90;;;7.50;;
23119;SDS011;11729;50.836;4.330;2023-03-21T10:54:21;9.30;;;7.18;;
23119;SDS011;11729;50.836;4.330;2023-03-21T10:56:56;14.25;;;7.57;;
23119;SDS011;11729;50.836;4.330;2023-03-21T10:59:24;12.45;;;8.55;;
23119;SDS011;11729;50.836;4.330;2023-03-21T11:01:54;10.60;;;7.78;;
23119;SDS011;11729;50.836;4.330;2023-03-21T11:04:21;13.32;;;8.20;;
23119;SDS011;11729;50.836;4.330;2023-03-21T11:06:54;11.63;;;8.23;;
23119;SDS011;11729;50.836;4.330;2023-03-21T11:09:26;12.32;;;7.95;;
23119;SDS011;11729;50.836;4.330;2023-03-21T11:12:12;14.38;;;8.30;;
23119;SDS011;11729;50.836;4.330;2023-03-21T11:14:43;12.25;;;8.38;;
23119;SDS011;11729;50.836;4.330;2023-03-21T11:22:27;14.02;;;7.90;;
23119;SDS011;11729;50.836;4.330;2023-03-21T11:25:00;13.73;;;7.78;;
23119;SDS011;11729;50.836;4.330;2023-03-21T11:27:29;13.82;;;8.00;;
23119;SDS011;11729;50.836;4.330;2023-03-21T11:29:56;12.60;;;7.70;;
23119;SDS011;11729;50.836;4.330;2023-03-21T11:32:31;11.27;;;7.28;;
23119;SDS011;11729;50.836;4.330;2023-03-21T11:35:03;12.70;;;7.80;;
23119;SDS011;11729;50.836;4.330;2023-03-21T11:37:52;12.77;;;7.18;;
23119;SDS011;11729;50.836;4.330;2023-03-21T11:40:32;10.70;;;6.68;;
23119;SDS011;11729;50.836;4.330;2023-03-21T11:43:05;10.63;;;6.60;;
23119;SDS011;11729;50.836;4.330;2023-03-21T11:46:01;11.68;;;7.15;;
23119;SDS011;11729;50.836;4.330;2023-03-21T11:48:51;9.07;;;6.55;;
23119;SDS011;11729;50.836;4.330;2023-03-21T11:54:15;13.18;;;6.93;;
23119;SDS011;11729;50.836;4.330;2023-03-21T11:56:51;9.82;;;7.50;;
23119;SDS011;11729;50.836;4.330;2023-03-21T12:07:29;10.77;;;7.18;;
23119;SDS011;11729;50.836;4.330;2023-03-21T12:10:34;12.18;;;8.15;;
23119;SDS011;11729;50.836;4.330;2023-03-21T12:18:38;13.00;;;8.50;;
23119;SDS011;11729;50.836;4.330;2023-03-21T12:24:25;13.70;;;8.25;;
23119;SDS011;11729;50.836;4.330;2023-03-21T12:27:18;10.15;;;7.88;;
23119;SDS011;11729;50.836;4.330;2023-03-21T12:32:56;11.93;;;8.05;;
23119;SDS011;11729;50.836;4.330;2023-03-21T12:38:38;15.48;;;8.20;;
23119;SDS011;11729;50.836;4.330;2023-03-21T12:41:11;12.75;;;7.90;;
23119;SDS011;11729;50.836;4.330;2023-03-21T12:46:28;12.93;;;7.65;;
23119;SDS011;11729;50.836;4.330;2023-03-21T12:49:02;9.18;;;7.38;;
23119;SDS011;11729;50.836;4.330;2023-03-21T12:51:35;11.88;;;7.07;;
23119;SDS011;11729;50.836;4.330;2023-03-21T12:56:44;12.15;;;7.85;;
23119;SDS011;11729;50.836;4.330;2023-03-21T13:02:15;9.85;;;7.45;;
23119;SDS011;11729;50.836;4.330;2023-03-21T13:07:59;11.32;;;7.45;;
23119;SDS011;11729;50.836;4.330;2023-03-21T13:10:46;10.82;;;7.75;;
23119;SDS011;11729;50.836;4.330;2023-03-21T13:15:48;9.93;;;7.85;;
23119;SDS011;11729;50.836;4.330;2023-03-21T13:24:04;16.23;;;7.70;;
23119;SDS011;11729;50.836;4.330;2023-03-21T13:27:35;9.88;;;7.57;;
23119;SDS011;11729;50.836;4.330;2023-03-21T13:29:58;13.70;;;7.75;;
23119;SDS011;11729;50.836;4.330;2023-03-21T13:32:31;12.27;;;7.75;;
23119;SDS011;11729;50.836;4.330;2023-03-21T13:37:37;12.60;;;8.00;;
23119;SDS011;11729;50.836;4.330;2023-03-21T13:40:20;11.48;;;7.65;;
23119;SDS011;11729;50.836;4.330;2023-03-21T13:42:58;8.50;;;7.32;;
23119;SDS011;11729;50.836;4.330;2023-03-21T13:45:26;11.70;;;7.43;;
23119;SDS011;11729;50.836;4.330;2023-03-21T13:47:59;8.73;;;7.28;;
23119;SDS011;11729;50.836;4.330;2023-03-21T13:50:32;10.60;;;7.55;;
23119;SDS011;11729;50.836;4.330;2023-03-21T13:55:27;15.75;;;9.63;;
23119;SDS011;11729;50.836;4.330;2023-03-21T13:57:54;18.17;;;11.00;;
23119;SDS011;11729;50.836;4.330;2023-03-21T14:00:29;13.90;;;8.40;;
23119;SDS011;11729;50.836;4.330;2023-03-21T14:02:59;8.48;;;7.57;;
23119;SDS011;11729;50.836;4.330;2023-03-21T14:05:30;10.27;;;7.60;;
23119;SDS011;11729;50.836;4.330;2023-03-21T14:08:00;13.65;;;8.57;;
23119;SDS011;11729;50.836;4.330;2023-03-21T14:10:29;13.80;;;9.13;;
23119;SDS011;11729;50.836;4.330;2023-03-21T14:12:59;15.63;;;8.40;;
23119;SDS011;11729;50.836;4.330;2023-03-21T14:15:31;12.45;;;8.30;;
23119;SDS011;11729;50.836;4.330;2023-03-21T14:18:04;9.80;;;8.80;;
23119;SDS011;11729;50.836;4.330;2023-03-21T14:20:34;16.05;;;8.88;;
23119;SDS011;11729;50.836;4.330;2023-03-21T14:23:06;12.50;;;9.13;;
23119;SDS011;11729;50.836;4.330;2023-03-21T14:25:33;10.73;;;8.40;;
23119;SDS011;11729;50.836;4.330;2023-03-21T14:28:03;11.98;;;8.85;;
23119;SDS011;11729;50.836;4.330;2023-03-21T14:30:33;10.70;;;9.63;;
23119;SDS011;11729;50.836;4.330;2023-03-21T14:33:24;11.93;;;8.93;;
23119;SDS011;11729;50.836;4.330;2023-03-21T14:35:51;9.95;;;8.93;;
23119;SDS011;11729;50.836;4.330;2023-03-21T14:38:20;13.13;;;9.57;;
23119;SDS011;11729;50.836;4.330;2023-03-21T14:40:48;12.15;;;8.80;;
23119;SDS011;11729;50.836;4.330;2023-03-21T14:43:20;16.10;;;14.23;;
23119;SDS011;11729;50.836;4.330;2023-03-21T14:45:48;12.75;;;9.20;;
23119;SDS011;11729;50.836;4.330;2023-03-21T14:48:20;11.23;;;9.20;;
23119;SDS011;11729;50.836;4.330;2023-03-21T14:50:54;9.73;;;8.73;;
23119;SDS011;11729;50.836;4.330;2023-03-21T14:53:29;10.77;;;8.90;;
23119;SDS011;11729;50.836;4.330;2023-03-21T14:58:32;11.65;;;9.30;;
23119;SDS011;11729;50.836;4.330;2023-03-21T15:01:03;9.02;;;8.13;;
23119;SDS011;11729;50.836;4.330;2023-03-21T15:03:31;10.48;;;8.40;;
23119;SDS011;11729;50.836;4.330;2023-03-21T15:05:57;10.40;;;8.90;;
23119;SDS011;11729;50.836;4.330;2023-03-21T15:08:25;11.75;;;8.90;;
23119;SDS011;11729;50.836;4.330;2023-03-21T15:10:54;15.48;;;9.57;;
23119;SDS011;11729;50.836;4.330;2023-03-21T15:13:25;14.57;;;9.90;;
23119;SDS011;11729;50.836;4.330;2023-03-21T15:15:54;10.05;;;9.05;;
23119;SDS011;11729;50.836;4.330;2023-03-21T15:18:30;15.07;;;9.30;;
23119;SDS011;11729;50.836;4.330;2023-03-21T15:21:17;13.27;;;10.18;;
23119;SDS011;11729;50.836;4.330;2023-03-21T15:23:52;13.27;;;9.73;;
23119;SDS011;11729;50.836;4.330;2023-03-21T15:26:21;10.50;;;9.20;;
23119;SDS011;11729;50.836;4.330;2023-03-21T15:28:50;11.23;;;9.23;;
23119;SDS011;11729;50.836;4.330;2023-03-21T15:31:22;9.95;;;8.98;;
23119;SDS011;11729;50.836;4.330;2023-03-21T15:34:22;12.07;;;9.80;;
23119;SDS011;11729;50.836;4.330;2023-03-21T15:36:54;12.00;;;9.88;;
23119;SDS011;11729;50.836;4.330;2023-03-21T15:39:22;12.30;;;9.60;;
23119;SDS011;11729;50.836;4.330;2023-03-21T15:42:49;11.57;;;9.43;;
23119;SDS011;11729;50.836;4.330;2023-03-21T15:44:52;10.52;;;9.52;;
23119;SDS011;11729;50.836;4.330;2023-03-21T15:47:40;10.90;;;9.65;;
23119;SDS011;11729;50.836;4.330;2023-03-21T15:50:10;14.48;;;10.40;;
23119;SDS011;11729;50.836;4.330;2023-03-21T15:52:51;12.13;;;10.40;;
23119;SDS011;11729;50.836;4.330;2023-03-21T15:56:01;17.95;;;13.77;;
23119;SDS011;11729;50.836;4.330;2023-03-21T15:58:18;16.75;;;11.00;;
23119;SDS011;11729;50.836;4.330;2023-03-21T16:00:48;13.27;;;10.77;;
23119;SDS011;11729;50.836;4.330;2023-03-21T16:03:15;12.60;;;11.37;;
23119;SDS011;11729;50.836;4.330;2023-03-21T16:06:56;14.00;;;10.98;;
23119;SDS011;11729;50.836;4.330;2023-03-21T16:09:37;12.40;;;11.20;;
23119;SDS011;11729;50.836;4.330;2023-03-21T16:11:54;16.35;;;11.50;;
23119;SDS011;11729;50.836;4.330;2023-03-21T16:14:23;13.30;;;10.95;;
23119;SDS011;11729;50.836;4.330;2023-03-21T16:16:51;15.15;;;11.40;;
23119;SDS011;11729;50.836;4.330;2023-03-21T16:19:17;14.70;;;11.77;;
23119;SDS011;11729;50.836;4.330;2023-03-21T16:21:43;15.45;;;12.63;;
23119;SDS011;11729;50.836;4.330;2023-03-21T16:24:10;18.20;;;12.02;;
23119;SDS011;11729;50.836;4.330;2023-03-21T16:26:40;17.33;;;12.10;;
23119;SDS011;11729;50.836;4.330;2023-03-21T16:29:11;18.05;;;11.57;;
23119;SDS011;11729;50.836;4.330;2023-03-21T16:31:38;12.75;;;11.27;;
23119;SDS011;11729;50.836;4.330;2023-03-21T16:34:04;12.52;;;10.82;;